sensor_id;sensor_type;location;lat;lon;timestamp;pressure;altitude;pressure_sealevel;temperature;humidity
61740;BME280;47645;45.288;12.038;2022-11-13T00:01:40;1026.2420598452265;;;12.0171875;86.70706319789171
61740;BME280;47645;45.288;12.038;2022-11-13T00:11:41;1026.1293468368046;;;11.884765625;85.6759159745067
61740;BME280;47645;45.288;12.038;2022-11-13T00:21:41;1026.147862997016;;;11.81328125;84.80319471346388
61740;BME280;47645;45.288;12.038;2022-11-13T00:31:42;1026.1944577321249;;;11.6501953125;85.67275479539704
61740;BME280;47645;45.288;12.038;2022-11-13T00:41:42;1026.2028788401612;;;11.69609375;84.80022967220381
61740;BME280;47645;45.288;12.038;2022-11-13T00:51:43;1026.0323337792263;;;11.4361328125;84.99624434509542
61740;BME280;47645;45.288;12.038;2022-11-13T01:01:43;1026.0334862801421;;;11.3392578125;84.70729961726506
61740;BME280;47645;45.288;12.038;2022-11-13T01:11:44;1026.037255349512;;;11.273046875;84.06308877391596
61740;BME280;47645;45.288;12.038;2022-11-13T01:21:44;1026.1357176883528;;;11.15078125;84.78264202948795
61740;BME280;47645;45.288;12.038;2022-11-13T01:31:45;1025.9013573407915;;;11.278125;84.37443986877595
61740;BME280;47645;45.288;12.038;2022-11-13T01:41:45;1025.923234110478;;;11.349609375;85.13572485285904
61740;BME280;47645;45.288;12.038;2022-11-13T01:51:49;1025.8695140061768;;;11.5380859375;84.58854105770168
61740;BME280;47645;45.288;12.038;2022-11-13T02:01:47;1025.8242311498002;;;11.5890625;84.31786332017002
61740;BME280;47645;45.288;12.038;2022-11-13T02:11:47;1025.6034961027033;;;11.4462890625;84.34222640388354
61740;BME280;47645;45.288;12.038;2022-11-13T02:21:54;1025.564691228494;;;11.487109375;83.65130424213434
61740;BME280;47645;45.288;12.038;2022-11-13T02:31:48;1025.5999169925149;;;11.5330078125;82.18887496872439
61740;BME280;47645;45.288;12.038;2022-11-13T02:41:48;1025.5419838599594;;;11.4158203125;79.86528778058538
61740;BME280;47645;45.288;12.038;2022-11-13T02:51:49;1025.6709767344066;;;11.252734375;81.44020092661346
61740;BME280;47645;45.288;12.038;2022-11-13T03:01:50;1025.644975886499;;;11.1099609375;79.80980335600731
61740;BME280;47645;45.288;12.038;2022-11-13T03:11:50;1025.5535872954063;;;10.946875;79.14300258832996
61740;BME280;47645;45.288;12.038;2022-11-13T03:21:51;1025.570135636448;;;10.72265625;78.5672083685256
61740;BME280;47645;45.288;12.038;2022-11-13T03:31:51;1025.5748546499115;;;10.748046875;79.50230495491735
61740;BME280;47645;45.288;12.038;2022-11-13T03:41:52;1025.537697039388;;;10.824609375;77.79950319064446
61740;BME280;47645;45.288;12.038;2022-11-13T03:51:53;1025.6296512565962;;;10.7583984375;77.72125782885428
61740;BME280;47645;45.288;12.038;2022-11-13T04:01:53;1025.5702077801134;;;10.7685546875;78.04943509212949
61740;BME280;47645;45.288;12.038;2022-11-13T04:11:54;1025.609946591977;;;10.6767578125;78.29136460199965
61740;BME280;47645;45.288;12.038;2022-11-13T04:21:54;1025.5665363226947;;;10.5646484375;78.11356611439177
61740;BME280;47645;45.288;12.038;2022-11-13T04:31:55;1025.6651565448099;;;10.503515625;78.30314767674801
61740;BME280;47645;45.288;12.038;2022-11-13T04:43:00;1025.580793434262;;;10.4576171875;78.7419030257502
61740;BME280;47645;45.288;12.038;2022-11-13T04:51:56;1025.5054213451622;;;10.396484375;80.01147696740667
61740;BME280;47645;45.288;12.038;2022-11-13T05:01:57;1025.4174699286873;;;10.3046875;80.71783673480219
61740;BME280;47645;45.288;12.038;2022-11-13T05:11:57;1025.4019411460852;;;10.19765625;80.2372292084524
61740;BME280;47645;45.288;12.038;2022-11-13T05:21:57;1025.593085911536;;;10.1671875;80.44587791702203
61740;BME280;47645;45.288;12.038;2022-11-13T05:31:58;1025.5530002961586;;;10.0041015625;81.98592219628364
61740;BME280;47645;45.288;12.038;2022-11-13T05:41:58;1025.5738110334742;;;9.978515625;80.20441614086835
61740;BME280;47645;45.288;12.038;2022-11-13T05:51:59;1025.6973174741631;;;9.948046875;81.54835083992063
61740;BME280;47645;45.288;12.038;2022-11-13T06:02:00;1025.7141431468622;;;9.86640625;81.21302095879192
61740;BME280;47645;45.288;12.038;2022-11-13T06:12:00;1025.6466824986933;;;9.9326171875;81.96159816366955
61740;BME280;47645;45.288;12.038;2022-11-13T06:22:01;1025.8334817479458;;;9.8357421875;82.07410591464085
61740;BME280;47645;45.288;12.038;2022-11-13T06:32:02;1025.8168101758977;;;9.647265625;82.75156289776488
61740;BME280;47645;45.288;12.038;2022-11-13T06:42:02;1026.0559052443193;;;9.6421875;85.35046649137203
61740;BME280;47645;45.288;12.038;2022-11-13T06:52:03;1026.0674136931887;;;9.8306640625;86.33303353204158
61740;BME280;47645;45.288;12.038;2022-11-13T07:02:04;1026.0586612548805;;;9.9275390625;88.10109571756483
61740;BME280;47645;45.288;12.038;2022-11-13T07:12:05;1025.9917440157192;;;10.1263671875;90.2690985176609
61740;BME280;47645;45.288;12.038;2022-11-13T07:22:04;1026.0629483886892;;;10.5595703125;91.22852298758173
61740;BME280;47645;45.288;12.038;2022-11-13T07:32:05;1026.132450950113;;;10.946875;91.5744668591947
61740;BME280;47645;45.288;12.038;2022-11-13T07:42:05;1026.1162520405126;;;11.2322265625;89.94094945024392
61740;BME280;47645;45.288;12.038;2022-11-13T07:52:07;1025.8686453926293;;;11.50234375;88.17020353667064
61740;BME280;47645;45.288;12.038;2022-11-13T08:02:10;1026.025465315198;;;11.69609375;86.19967308910466
61740;BME280;47645;45.288;12.038;2022-11-13T08:12:07;1026.0709878068621;;;11.8642578125;83.9238954901799
61740;BME280;47645;45.288;12.038;2022-11-13T08:22:08;1026.1802839786353;;;12.0732421875;82.93395947725507
61740;BME280;47645;45.288;12.038;2022-11-13T08:32:08;1026.1836542571634;;;12.53203125;83.6159017094186
61740;BME280;47645;45.288;12.038;2022-11-13T08:42:09;1026.2696711733993;;;12.8072265625;80.90832398629355
61740;BME280;47645;45.288;12.038;2022-11-13T08:52:09;1026.3452808315465;;;12.465625;77.61268185173078
61740;BME280;47645;45.288;12.038;2022-11-13T09:02:15;1026.307646831474;;;12.8224609375;74.64671831812699
61740;BME280;47645;45.288;12.038;2022-11-13T09:12:13;1025.9344503399009;;;12.888671875;72.41150780806933
61740;BME280;47645;45.288;12.038;2022-11-13T09:22:12;1025.877056363266;;;13.4494140625;70.9083878495931
61740;BME280;47645;45.288;12.038;2022-11-13T09:32:13;1026.069509815861;;;13.8265625;68.94754544121402
61740;BME280;47645;45.288;12.038;2022-11-13T09:42:16;1026.1871729169466;;;14.16796875;67.33631174791871
61740;BME280;47645;45.288;12.038;2022-11-13T09:52:17;1026.1931721032104;;;14.45859375;66.78731440282964
61740;BME280;47645;45.288;12.038;2022-11-13T10:02:20;1025.909019452459;;;14.8458984375;66.51414845858244
61740;BME280;47645;45.288;12.038;2022-11-13T10:12:15;1025.7978109710773;;;15.1875;65.1841359742735
61740;BME280;47645;45.288;12.038;2022-11-13T10:22:18;1025.6496862324123;;;15.7685546875;65.59095146220476
61740;BME280;47645;45.288;12.038;2022-11-13T10:32:19;1025.5002212672514;;;15.3861328125;64.81814796357831
61740;BME280;47645;45.288;12.038;2022-11-13T10:42:20;1025.5032149201556;;;15.824609375;64.83822221518741
61740;BME280;47645;45.288;12.038;2022-11-13T10:52:21;1025.2774722594427;;;16.242578125;64.75033071505943
61740;BME280;47645;45.288;12.038;2022-11-13T11:02:21;1025.1143959422695;;;15.8296875;66.21433341255656
61740;BME280;47645;45.288;12.038;2022-11-13T11:12:21;1024.9317826482186;;;16.176171875;66.80623657386288
61740;BME280;47645;45.288;12.038;2022-11-13T11:22:23;1024.7878501049202;;;16.048828125;65.3714568075066
61740;BME280;47645;45.288;12.038;2022-11-13T11:32:24;1024.8081686476391;;;16.471875;63.50329714009451
61740;BME280;47645;45.288;12.038;2022-11-13T11:42:28;1024.62601338404;;;16.5380859375;62.83342503211032
61740;BME280;47645;45.288;12.038;2022-11-13T11:52:40;1024.6336293016893;;;16.375;64.22705456684852
61740;BME280;47645;45.288;12.038;2022-11-13T12:02:44;1024.4771822794369;;;15.9724609375;63.27780144174923
61740;BME280;47645;45.288;12.038;2022-11-13T12:12:36;1024.3451115731725;;;15.6970703125;64.61111451244527
61740;BME280;47645;45.288;12.038;2022-11-13T12:22:31;1024.1325190831778;;;15.610546875;64.27367865758819
61740;BME280;47645;45.288;12.038;2022-11-13T12:32:44;1024.1257807572802;;;15.1568359375;66.2290456710171
61740;BME280;47645;45.288;12.038;2022-11-13T12:42:31;1023.9658733009915;;;15.2638671875;65.66749398499003
61740;BME280;47645;45.288;12.038;2022-11-13T12:52:29;1023.8798681206453;;;15.641015625;65.16043657047877
61740;BME280;47645;45.288;12.038;2022-11-13T13:02:53;1023.8239369943242;;;15.7685546875;65.82778259354508
61740;BME280;47645;45.288;12.038;2022-11-13T13:12:39;1023.7265726243462;;;15.951953125;65.91822836254015
61740;BME280;47645;45.288;12.038;2022-11-13T13:22:31;1023.7844578465697;;;15.8091796875;66.24753777839618
61740;BME280;47645;45.288;12.038;2022-11-13T13:32:37;1023.7339995843764;;;15.6359375;67.71949864001918
61740;BME280;47645;45.288;12.038;2022-11-13T13:42:42;1023.7058187807525;;;15.6767578125;67.00586746172482
61740;BME280;47645;45.288;12.038;2022-11-13T13:52:33;1023.715357929597;;;15.3505859375;68.5386437412728
61740;BME280;47645;45.288;12.038;2022-11-13T14:02:34;1023.6440953222899;;;15.309765625;69.26713973993242
61740;BME280;47645;45.288;12.038;2022-11-13T14:12:34;1023.619137723811;;;15.1619140625;69.32479869239384
61740;BME280;47645;45.288;12.038;2022-11-13T14:22:34;1023.6926826079091;;;15.1263671875;69.58702108709251
61740;BME280;47645;45.288;12.038;2022-11-13T14:32:38;1023.5196979569639;;;15.2486328125;70.7823539269362
61740;BME280;47645;45.288;12.038;2022-11-13T14:42:41;1023.4796393827288;;;15.2841796875;69.76189564638194
61740;BME280;47645;45.288;12.038;2022-11-13T14:52:37;1023.4407087143732;;;15.202734375;70.85249969162551
61740;BME280;47645;45.288;12.038;2022-11-13T15:02:39;1023.4759746571099;;;15.0548828125;70.51047282210706
61740;BME280;47645;45.288;12.038;2022-11-13T15:12:40;1023.3408052079794;;;14.8255859375;72.08335172908998
61740;BME280;47645;45.288;12.038;2022-11-13T15:22:39;1023.4253952245873;;;14.657421875;72.86211462347367
61740;BME280;47645;45.288;12.038;2022-11-13T15:32:40;1023.330183638368;;;14.5400390625;74.13170938829688
61740;BME280;47645;45.288;12.038;2022-11-13T15:42:41;1023.341983971334;;;14.4228515625;75.47425431732088
61740;BME280;47645;45.288;12.038;2022-11-13T15:52:43;1023.3822135363704;;;14.473828125;73.42971389192385
61740;BME280;47645;45.288;12.038;2022-11-13T16:02:42;1023.3518466253491;;;14.239453125;74.5679509648443
61740;BME280;47645;45.288;12.038;2022-11-13T16:12:43;1023.4063435552115;;;14.239453125;75.73347424127392
61740;BME280;47645;45.288;12.038;2022-11-13T16:22:44;1023.4495616390502;;;14.12734375;76.74150282085556
61740;BME280;47645;45.288;12.038;2022-11-13T16:32:44;1023.4078618914162;;;14.0916015625;77.65738064138108
61740;BME280;47645;45.288;12.038;2022-11-13T16:42:45;1023.4139352498988;;;13.9947265625;78.15148574377581
61740;BME280;47645;45.288;12.038;2022-11-13T16:52:45;1023.4253371051834;;;14.015234375;80.08968023109811
61740;BME280;47645;45.288;12.038;2022-11-13T17:02:49;1023.4273295838138;;;13.9947265625;80.69723201811975
61740;BME280;47645;45.288;12.038;2022-11-13T17:12:49;1023.4381347530067;;;13.83671875;81.09058270819108
61740;BME280;47645;45.288;12.038;2022-11-13T17:22:48;1023.4353513504394;;;13.8927734375;81.47142497757073
61740;BME280;47645;45.288;12.038;2022-11-13T17:32:48;1023.5133201748146;;;13.8927734375;82.07901121678856
61740;BME280;47645;45.288;12.038;2022-11-13T17:42:49;1023.5565304358768;;;13.7501953125;82.9371710339831
61740;BME280;47645;45.288;12.038;2022-11-13T17:52:49;1023.6484113281389;;;13.5361328125;83.56139266107779
61740;BME280;47645;45.288;12.038;2022-11-13T18:02:50;1023.6553474295596;;;13.5666015625;83.42046929394667
61740;BME280;47645;45.288;12.038;2022-11-13T18:12:50;1023.7719818342603;;;13.530859375;84.21978640968705
61740;BME280;47645;45.288;12.038;2022-11-13T18:22:51;1023.7752139727352;;;13.5818359375;83.84511497984955
61740;BME280;47645;45.288;12.038;2022-11-13T18:32:52;1023.8455384504522;;;13.5513671875;84.03168856671742
61740;BME280;47645;45.288;12.038;2022-11-13T18:42:53;1023.9256899491078;;;13.378125;85.8766184746268
61740;BME280;47645;45.288;12.038;2022-11-13T18:52:55;1024.0257571932407;;;13.373046875;84.6327804122005
61740;BME280;47645;45.288;12.038;2022-11-13T19:02:56;1024.038013362566;;;13.28125;87.50927507596599
61740;BME280;47645;45.288;12.038;2022-11-13T19:12:54;1024.0349376790919;;;13.0875;86.27534339639315
61740;BME280;47645;45.288;12.038;2022-11-13T19:22:55;1023.9981890490162;;;13.19453125;85.2778638603738
61740;BME280;47645;45.288;12.038;2022-11-13T19:32:56;1024.069527368059;;;13.169140625;85.5755092025543
61740;BME280;47645;45.288;12.038;2022-11-13T19:42:56;1024.0092652463165;;;13.0517578125;86.06427330623202
61740;BME280;47645;45.288;12.038;2022-11-13T19:52:57;1023.8999987520382;;;13.05703125;86.27592000917417
61740;BME280;47645;45.288;12.038;2022-11-13T20:02:58;1023.9229662170015;;;12.9244140625;89.37801449796918
61740;BME280;47645;45.288;12.038;2022-11-13T20:12:58;1023.8991842777075;;;12.6798828125;92.5565370568119
61740;BME280;47645;45.288;12.038;2022-11-13T20:22:59;1023.9379652463259;;;12.43515625;91.63127541089963
61740;BME280;47645;45.288;12.038;2022-11-13T20:33:00;1024.1638967764695;;;12.419921875;90.97601859149947
61740;BME280;47645;45.288;12.038;2022-11-13T20:43:00;1024.2192854935656;;;12.521875;91.81518965391238
61740;BME280;47645;45.288;12.038;2022-11-13T20:53:01;1024.3011779841668;;;12.7306640625;87.85397148103038
61740;BME280;47645;45.288;12.038;2022-11-13T21:03:03;1024.3125356710634;;;12.654296875;87.91881858280307
61740;BME280;47645;45.288;12.038;2022-11-13T21:13:02;1024.1974411855988;;;12.5931640625;89.15674960349169
61740;BME280;47645;45.288;12.038;2022-11-13T21:23:03;1024.1003525673573;;;12.66953125;87.4137993636972
61740;BME280;47645;45.288;12.038;2022-11-13T21:33:04;1023.9851104993667;;;12.6798828125;87.66467996672087
61740;BME280;47645;45.288;12.038;2022-11-13T21:43:04;1023.972515627629;;;12.567578125;90.01583636971016
61740;BME280;47645;45.288;12.038;2022-11-13T21:53:05;1023.9011326187778;;;12.353515625;90.03013318400026
61740;BME280;47645;45.288;12.038;2022-11-13T22:03:05;1023.9278232380856;;;12.0783203125;100
61740;BME280;47645;45.288;12.038;2022-11-13T22:13:06;1023.8973804610177;;;11.77265625;100
61740;BME280;47645;45.288;12.038;2022-11-13T22:23:07;1023.8782005401443;;;11.7673828125;100
61740;BME280;47645;45.288;12.038;2022-11-13T22:33:07;1023.8661759077805;;;11.4412109375;100
61740;BME280;47645;45.288;12.038;2022-11-13T22:43:08;1023.8716957750469;;;11.36484375;100
61740;BME280;47645;45.288;12.038;2022-11-13T22:53:09;1023.919936504027;;;10.93671875;100
61740;BME280;47645;45.288;12.038;2022-11-13T23:03:09;1023.8416069960091;;;10.8755859375;100
61740;BME280;47645;45.288;12.038;2022-11-13T23:13:10;1023.6627209834523;;;10.844921875;100
61740;BME280;47645;45.288;12.038;2022-11-13T23:23:11;1023.5030499439147;;;10.5798828125;100
61740;BME280;47645;45.288;12.038;2022-11-13T23:33:11;1023.3421820074062;;;10.6666015625;100
61740;BME280;47645;45.288;12.038;2022-11-13T23:43:11;1023.1967603407862;;;10.284375;100
61740;BME280;47645;45.288;12.038;2022-11-13T23:53:12;1023.2765213637255;;;10.4677734375;100
